Time,TemperatureF,DewpointF,PressureIn,WindDirection,WindDirectionDegrees,WindSpeedMPH,WindSpeedGustMPH,Humidity,HourlyPrecipIn,Conditions,Clouds,dailyrainin,SoftwareType,DateUTC
2013-09-08 00:12:00,61.0,57.0,28.01,WNW,301,5.0,10.0,88,0.00,,,0.02,,2013-09-08 07:12:00,
2013-09-08 00:23:00,61.0,57.0,28.02,West,271,4.0,9.0,87,0.00,,,0.02,,2013-09-08 07:23:00,
2013-09-08 00:42:00,62.0,57.0,28.02,WSW,239,2.0,9.0,85,0.00,,,0.02,,2013-09-08 07:42:00,
2013-09-08 00:52:00,61.0,57.0,28.02,NW,323,3.0,6.0,87,0.00,,,0.02,,2013-09-08 07:52:00,
2013-09-08 01:11:00,61.0,57.0,28.02,WNW,283,3.0,10.0,87,0.00,,,0.02,,2013-09-08 08:11:00,
2013-09-08 01:22:00,61.0,57.0,28.02,WNW,297,5.0,8.0,87,0.00,,,0.02,,2013-09-08 08:22:00,
2013-09-08 01:52:00,60.0,56.0,28.03,SW,233,0.0,3.0,87,0.00,,,0.02,,2013-09-08 08:52:00,
2013-09-08 02:11:00,60.0,56.0,28.03,NNW,327,3.0,7.0,87,0.00,,,0.02,,2013-09-08 09:11:00,
2013-09-08 02:22:00,59.0,56.0,28.02,NNW,340,4.0,9.0,89,0.00,,,0.02,,2013-09-08 09:22:00,
2013-09-08 02:53:00,59.0,56.0,28.03,NW,319,2.0,8.0,89,0.00,,,0.02,,2013-09-08 09:53:00,
2013-09-08 03:12:00,59.0,55.0,28.03,WNW,287,3.0,8.0,88,0.00,,,0.02,,2013-09-08 10:12:00,
2013-09-08 03:23:00,59.0,55.0,28.02,West,263,4.0,8.0,88,0.00,,,0.02,,2013-09-08 10:23:00,
2013-09-08 03:42:00,59.0,55.0,28.02,North,349,3.0,10.0,88,0.00,,,0.02,,2013-09-08 10:42:00,
2013-09-08 03:53:00,59.0,55.0,28.02,NW,321,4.0,7.0,88,0.00,,,0.02,,2013-09-08 10:53:00,
2013-09-08 04:12:00,59.0,55.0,28.02,WSW,253,3.0,10.0,88,0.00,,,0.02,,2013-09-08 11:12:00,
2013-09-08 04:21:00,58.0,55.0,28.02,WSW,256,2.0,6.0,89,0.00,,,0.02,,2013-09-08 11:21:00,
2013-09-08 04:42:00,59.0,55.0,28.02,WNW,303,2.0,9.0,88,0.00,,,0.02,,2013-09-08 11:42:00,
2013-09-08 04:52:00,59.0,55.0,28.02,WNW,284,3.0,7.0,88,0.00,,,0.02,,2013-09-08 11:52:00,
2013-09-08 05:12:00,58.0,55.0,28.02,WSW,240,0.0,2.0,89,0.00,,,0.02,,2013-09-08 12:12:00,
2013-09-08 05:21:00,58.0,55.0,28.02,WNW,297,3.0,6.0,89,0.00,,,0.02,,2013-09-08 12:21:00,
2013-09-08 05:42:00,58.0,54.0,28.02,NW,309,6.0,13.0,87,0.00,,,0.02,,2013-09-08 12:42:00,
2013-09-08 05:52:00,59.0,54.0,28.02,West,281,4.0,10.0,85,0.00,,,0.02,,2013-09-08 12:52:00,
2013-09-08 06:11:00,58.0,54.0,28.03,WNW,297,2.0,6.0,87,0.00,,,0.02,,2013-09-08 13:11:00,
2013-09-08 06:22:00,58.0,54.0,28.03,NW,304,2.0,5.0,87,0.00,,,0.02,,2013-09-08 13:22:00,
2013-09-08 06:41:00,57.0,54.0,28.03,WSW,243,0.0,1.0,89,0.00,,,0.02,,2013-09-08 13:41:00,
2013-09-08 06:52:00,57.0,54.0,28.03,SE,129,0.0,3.0,91,0.00,,,0.02,,2013-09-08 13:52:00,
2013-09-08 07:11:00,56.0,54.0,28.03,West,280,0.0,1.0,93,0.00,,,0.02,,2013-09-08 14:11:00,
2013-09-08 07:22:00,57.0,54.0,28.03,WNW,295,8.0,15.0,89,0.00,,,0.02,,2013-09-08 14:22:00,
2013-09-08 07:42:00,59.0,55.0,28.03,WNW,296,7.0,14.0,86,0.00,,,0.02,,2013-09-08 14:42:00,
2013-09-08 07:52:00,59.0,55.0,28.04,WNW,297,2.0,7.0,86,0.00,,,0.02,,2013-09-08 14:52:00,
2013-09-08 08:12:00,59.0,55.0,28.04,NNW,336,1.0,4.0,86,0.00,,,0.02,,2013-09-08 15:12:00,
2013-09-08 08:23:00,59.0,55.0,28.03,NW,304,2.0,9.0,86,0.00,,,0.02,,2013-09-08 15:23:00,
2013-09-08 08:45:00,60.0,55.0,28.03,NW,307,1.0,5.0,84,0.00,,,0.02,,2013-09-08 15:45:00,
2013-09-08 08:54:00,60.0,55.0,28.03,West,271,1.0,4.0,85,0.00,,,0.02,,2013-09-08 15:54:00,
2013-09-08 09:14:00,61.0,56.0,28.03,West,278,0.0,0.0,85,0.00,,,0.02,,2013-09-08 16:14:00,
2013-09-08 09:23:00,62.0,56.0,28.02,ENE,58,1.0,4.0,82,0.00,,,0.02,,2013-09-08 16:23:00,
2013-09-08 09:43:00,63.0,57.0,28.03,NNW,345,2.0,5.0,80,0.00,,,0.02,,2013-09-08 16:43:00,
2013-09-08 09:53:00,63.0,56.0,28.03,WNW,287,2.0,5.0,79,0.00,,,0.02,,2013-09-08 16:53:00,
2013-09-08 10:12:00,64.0,57.0,28.02,NNE,20,0.0,4.0,78,0.00,,,0.02,,2013-09-08 17:12:00,
2013-09-08 10:23:00,65.0,58.0,28.02,SE,125,0.0,3.0,79,0.00,,,0.02,,2013-09-08 17:23:00,
2013-09-08 10:43:00,65.0,57.0,28.02,East,94,0.0,1.0,76,0.00,,,0.02,,2013-09-08 17:43:00,
2013-09-08 10:53:00,66.0,58.0,28.01,NE,37,0.0,3.0,76,0.00,,,0.02,,2013-09-08 17:53:00,
2013-09-08 11:13:00,67.0,59.0,28.01,SE,146,0.0,1.0,75,0.00,,,0.02,,2013-09-08 18:13:00,
2013-09-08 11:22:00,68.0,60.0,28.00,ESE,121,0.0,2.0,75,0.00,,,0.02,,2013-09-08 18:22:00,
2013-09-08 11:42:00,69.0,60.0,28.00,ESE,115,1.0,3.0,72,0.00,,,0.01,,2013-09-08 18:42:00,
2013-09-08 11:52:00,70.0,60.0,28.00,ESE,117,0.0,2.0,70,0.00,,,0.01,,2013-09-08 18:52:00,
2013-09-08 12:11:00,70.0,60.0,27.99,ENE,66,0.0,4.0,71,0.00,,,0.01,,2013-09-08 19:11:00,
2013-09-08 12:22:00,71.0,60.0,27.99,ESE,117,0.0,3.0,68,0.00,,,0.01,,2013-09-08 19:22:00,
2013-09-08 12:42:00,72.0,60.0,27.98,ESE,107,2.0,4.0,67,0.00,,,0.00,,2013-09-08 19:42:00,
2013-09-08 12:52:00,73.0,61.0,27.97,WNW,302,0.0,2.0,66,0.00,,,0.00,,2013-09-08 19:52:00,
2013-09-08 13:11:00,74.0,61.0,27.97,ESE,111,0.0,2.0,64,0.00,,,0.00,,2013-09-08 20:11:00,
2013-09-08 13:22:00,75.0,62.0,27.97,SE,129,0.0,2.0,64,0.00,,,0.00,,2013-09-08 20:22:00,
2013-09-08 13:42:00,76.0,62.0,27.96,ESE,118,0.0,3.0,62,0.00,,,0.00,,2013-09-08 20:42:00,
2013-09-08 13:53:00,77.0,62.0,27.96,ENE,64,0.0,2.0,59,0.00,,,0.00,,2013-09-08 20:53:00,
2013-09-08 14:12:00,78.0,61.0,27.95,SE,137,0.0,1.0,56,0.00,,,0.00,,2013-09-08 21:12:00,
2013-09-08 14:22:00,79.0,60.0,27.94,West,276,0.0,2.0,53,0.00,,,0.00,,2013-09-08 21:22:00,
2013-09-08 14:43:00,80.0,61.0,27.94,SE,124,0.0,2.0,52,0.00,,,0.00,,2013-09-08 21:43:00,
2013-09-08 14:54:00,80.0,60.0,27.93,ESE,110,1.0,3.0,50,0.00,,,0.00,,2013-09-08 21:54:00,
2013-09-08 15:13:00,81.0,62.0,27.92,East,89,0.0,3.0,52,0.00,,,0.00,,2013-09-08 22:13:00,
2013-09-08 15:24:00,81.0,61.0,27.92,ESE,107,0.0,3.0,51,0.00,,,0.00,,2013-09-08 22:24:00,
2013-09-08 15:43:00,82.0,60.0,27.91,East,91,0.0,2.0,48,0.00,,,0.00,,2013-09-08 22:43:00,
2013-09-08 15:53:00,82.0,60.0,27.90,SE,134,0.0,2.0,48,0.00,,,0.00,,2013-09-08 22:53:00,
2013-09-08 16:12:00,84.0,62.0,27.90,West,278,0.0,2.0,47,0.00,,,0.00,,2013-09-08 23:12:00,
2013-09-08 16:22:00,84.0,62.0,27.89,NW,314,0.0,1.0,47,0.00,,,0.00,,2013-09-08 23:22:00,
2013-09-08 16:42:00,85.0,62.0,27.89,NNW,345,0.0,1.0,47,0.00,,,0.00,,2013-09-08 23:42:00,
2013-09-08 16:52:00,86.0,62.0,27.88,SW,220,0.0,1.0,44,0.00,,,0.00,,2013-09-08 23:52:00,
2013-09-08 17:11:00,87.0,62.0,27.87,SE,137,0.0,1.0,43,0.00,,,0.00,,2013-09-09 00:11:00,
2013-09-08 17:21:00,88.0,61.0,27.87,WSW,242,0.0,1.0,40,0.00,,,0.00,,2013-09-09 00:21:00,
2013-09-08 17:42:00,88.0,63.0,27.86,SE,146,0.0,1.0,43,0.00,,,0.00,,2013-09-09 00:42:00,
2013-09-08 17:52:00,88.0,61.0,27.86,SE,144,0.0,1.0,41,0.00,,,0.00,,2013-09-09 00:52:00,
2013-09-08 18:12:00,88.0,61.0,27.86,SW,235,0.0,1.0,40,0.00,,,0.00,,2013-09-09 01:12:00,
2013-09-08 18:21:00,87.0,60.0,27.85,WSW,249,0.0,1.0,40,0.00,,,0.00,,2013-09-09 01:21:00,
2013-09-08 18:42:00,86.0,62.0,27.85,NW,308,0.0,2.0,44,0.00,,,0.00,,2013-09-09 01:42:00,
2013-09-08 18:52:00,84.0,56.0,27.85,WNW,300,8.0,13.0,38,0.00,,,0.00,,2013-09-09 01:52:00,
2013-09-08 19:11:00,83.0,56.0,27.85,NW,311,8.0,12.0,40,0.00,,,0.00,,2013-09-09 02:11:00,
2013-09-08 19:21:00,82.0,57.0,27.85,WNW,293,7.0,11.0,42,0.00,,,0.00,,2013-09-09 02:21:00,
2013-09-08 19:42:00,81.0,58.0,27.85,West,278,8.0,15.0,45,0.00,,,0.00,,2013-09-09 02:42:00,
2013-09-08 19:52:00,80.0,57.0,27.86,WNW,297,9.0,18.0,46,0.00,,,0.00,,2013-09-09 02:52:00,
2013-09-08 20:12:00,79.0,56.0,27.86,NW,315,10.0,16.0,46,0.00,,,0.00,,2013-09-09 03:12:00,
2013-09-08 20:21:00,79.0,56.0,27.86,WNW,303,11.0,17.0,46,0.00,,,0.00,,2013-09-09 03:21:00,
2013-09-08 20:44:00,78.0,56.0,27.86,West,269,9.0,18.0,47,0.00,,,0.00,,2013-09-09 03:44:00,
2013-09-08 20:55:00,78.0,57.0,27.87,West,268,10.0,15.0,48,0.00,,,0.00,,2013-09-09 03:55:00,
2013-09-08 21:14:00,77.0,56.0,27.87,West,280,8.0,15.0,49,0.00,,,0.00,,2013-09-09 04:14:00,
2013-09-08 21:24:00,77.0,56.0,27.87,NW,309,9.0,18.0,49,0.00,,,0.00,,2013-09-09 04:24:00,
2013-09-08 21:43:00,77.0,56.0,27.87,NW,312,10.0,18.0,49,0.00,,,0.00,,2013-09-09 04:43:00,
2013-09-08 21:54:00,77.0,57.0,27.87,West,267,10.0,22.0,50,0.00,,,0.00,,2013-09-09 04:54:00,
2013-09-08 22:13:00,76.0,56.0,27.87,NW,315,11.0,25.0,50,0.00,,,0.00,,2013-09-09 05:13:00,
2013-09-08 22:23:00,75.0,57.0,27.88,NW,314,6.0,16.0,53,0.00,,,0.00,,2013-09-09 05:23:00,
2013-09-08 22:43:00,74.0,57.0,27.89,WNW,289,6.0,14.0,55,0.00,,,0.00,,2013-09-09 05:43:00,
2013-09-08 22:53:00,74.0,57.0,27.89,WNW,297,8.0,14.0,56,0.00,,,0.00,,2013-09-09 05:53:00,
2013-09-08 23:12:00,74.0,57.0,27.89,NW,304,10.0,16.0,56,0.00,,,0.00,,2013-09-09 06:12:00,
2013-09-08 23:21:00,74.0,57.0,27.88,WNW,299,13.0,21.0,55,0.00,,,0.00,,2013-09-09 06:21:00,
2013-09-08 23:42:00,74.0,57.0,27.89,NW,321,10.0,20.0,55,0.00,,,0.00,,2013-09-09 06:42:00,
2013-09-08 23:52:00,74.0,56.0,27.89,NNW,335,9.0,17.0,54,0.00,,,0.00,,2013-09-09 06:52:00,